Terminal Aerodrome Forecast
Issued by NWS Rapid City, SD

Home | Current Version | Previous Version | Graphics & Text | Print | Product List | Glossary Off
Versions: 1 2 3 4 5 6 7 8 9 10 11 12 13 14 15

000
FTUS43 KUNR 210520
TAFRAP
TAF
KRAP 210520Z 2106/2206 33010KT P6SM BKN060
      TEMPO 2106/2108 P6SM -SHRASN BKN025 OVC050
     FM210800 33010KT P6SM BKN025
     FM211600 VRB05KT P6SM SCT060=

USA.gov is the U.S. government's official web portal to all federal, state and local government web resources and services.